Time;durP1;ratioP1;P1;durP2;ratioP2;P2;SDS_P1;SDS_P2;PMS_P1;PMS_P2;Temp;Humidity;BMP_temperature;BMP_pressure;BME280_temperature;BME280_humidity;BME280_pressure;Samples;Min_cycle;Max_cycle;Signal;HPM_P1;HPM_P2
2022/12/02 00:03:51;;;;;;;;;;;;;;;;;;;;;
2022/12/02 00:07:14;;;;;;;13.83;11.68;;;;;;;7.24;60.92;101398.86;1898046;102;25898;-80
2022/12/02 00:10:48;;;;;;;15.20;12.23;;;;;;;7.23;60.79;101399.68;1917134;102;25911;-81
2022/12/02 00:14:26;;;;;;;13.32;10.78;;;;;;;7.20;60.73;101391.33;1902783;102;25858;-81
2022/12/02 00:17:48;;;;;;;16.12;11.43;;;;;;;7.19;60.61;101399.00;1903933;102;25833;-80
2022/12/02 00:21:29;;;;;;;;;;;;;;;;;;;;;
2022/12/02 00:24:48;;;;;;;15.50;12.07;;;;;;;7.17;60.49;101387.27;1884212;102;25602;-81
2022/12/02 00:28:27;;;;;;;14.18;12.10;;;;;;;7.18;60.40;101398.53;1870107;104;25814;-81
2022/12/02 00:35:35;;;;;;;15.78;12.23;;;;;;;7.16;60.30;101397.58;1879312;102;25935;-82
2022/12/02 00:39:04;;;;;;;12.47;11.10;;;;;;;7.15;60.24;101399.66;1913740;101;25763;-82
2022/12/02 00:46:36;;;;;;;12.63;10.63;;;;;;;7.11;60.08;101399.90;1850824;105;25877;-82
2022/12/02 00:50:16;;;;;;;16.05;11.50;;;;;;;7.13;60.04;101402.59;1852500;104;26490;-81
2022/12/02 00:53:45;;;;;;;12.28;10.53;;;;;;;7.09;59.95;101398.53;1920358;100;25948;-81
2022/12/02 00:57:17;;;;;;;13.08;11.15;;;;;;;7.09;59.88;101398.53;1934399;102;26110;-81
2022/12/02 01:04:39;;;;;;;14.53;10.48;;;;;;;7.06;59.80;101398.78;1951905;94;25929;-80
2022/12/02 01:08:28;;;;;;;;;;;;;;;;;;;;;
2022/12/02 01:15:18;;;;;;;12.65;9.05;;;;;;;7.03;59.61;101394.31;1972255;99;25866;-81
2022/12/02 01:18:58;;;;;;;12.18;9.60;;;;;;;7.00;59.54;101386.77;1975501;98;25913;-80
2022/12/02 01:22:29;;;;;;;;;;;;;;;;;;;;;
2022/12/02 01:26:09;;;;;;;;;;;;;;;;;;;;;
2022/12/02 01:30:44;;;;;;;11.55;10.20;;;;;;;6.97;59.38;101376.23;1919955;102;26614;-81
2022/12/02 01:34:29;;;;;;;12.33;9.85;;;;;;;6.95;59.32;101378.76;1884454;103;25816;-80
2022/12/02 01:38:17;;;;;;;11.73;10.18;;;;;;;6.95;59.27;101384.32;1840923;106;25853;-81
2022/12/02 01:42:02;;;;;;;;;;;;;;;;;;;;;
2022/12/02 01:45:55;;;;;;;9.88;8.85;;;;;;;6.93;59.17;101375.59;1798062;108;25939;-81
2022/12/02 01:49:38;;;;;;;12.80;9.45;;;;;;;6.92;59.13;101372.48;1810035;107;25780;-81
2022/12/02 01:52:59;;;;;;;13.35;8.90;;;;;;;6.90;59.04;101372.41;1808442;106;25607;-81
2022/12/02 01:56:19;;;;;;;11.08;9.83;;;;;;;6.88;58.91;101371.43;1808358;107;25404;-79
2022/12/02 01:59:43;;;;;;;16.90;8.73;;;;;;;6.88;58.85;101373.13;1818462;100;35311;-80
2022/12/02 02:03:24;;;;;;;14.45;9.35;;;;;;;6.85;58.80;101366.99;1943939;100;25879;-81
2022/12/02 02:06:49;;;;;;;9.55;8.00;;;;;;;6.85;58.72;101362.19;1939540;100;26515;-80
2022/12/02 02:10:23;;;;;;;9.48;8.48;;;;;;;6.83;58.64;101365.13;1862446;103;26565;-81
2022/12/02 02:17:29;;;;;;;10.10;9.10;;;;;;;6.82;58.59;101360.34;1924122;100;25946;-80
2022/12/02 02:21:13;;;;;;;10.93;8.63;;;;;;;6.82;58.58;101360.34;1890067;102;29221;-80
2022/12/02 02:24:42;;;;;;;11.12;9.78;;;;;;;6.82;58.57;101359.05;1906124;99;25801;-81
2022/12/02 02:31:59;;;;;;;;;;;;;;;6.81;58.47;101362.84;1728009;110;25874;-81
2022/12/02 02:35:41;;;;;;;8.80;8.03;;;;;;;6.80;58.39;101363.66;1768684;110;25978;-80
2022/12/02 02:39:24;;;;;;;;;;;;;;;;;;;;;
2022/12/02 02:43:04;;;;;;;;;;;;;;;;;;;;;
2022/12/02 02:46:39;;;;;;;9.73;7.75;;;;;;;6.79;58.38;101361.88;1697687;113;25905;-81
2022/12/02 02:50:07;;;;;;;9.55;8.53;;;;;;;6.78;58.33;101349.33;1699239;114;25839;-82
2022/12/02 02:53:44;;;;;;;11.35;8.80;;;;;;;6.79;58.29;101356.70;1705338;114;25756;-81
2022/12/02 03:13:43;;;;;;;9.30;7.83;;;;;;;6.75;58.05;101346.95;1734510;111;26045;-80
2022/12/02 03:17:28;;;;;;;9.20;7.17;;;;;;;6.73;57.99;101348.58;1749033;111;26029;-80
2022/12/02 03:21:08;;;;;;;9.48;8.45;;;;;;;6.72;57.95;101349.41;1746630;111;25924;-80
2022/12/02 03:24:39;;;;;;;11.48;9.15;;;;;;;6.70;57.91;101344.12;1717199;114;26097;-80
2022/12/02 03:28:02;;;;;;;12.05;7.60;;;;;;;6.70;57.88;101342.82;1692062;112;25972;-80
2022/12/02 03:31:38;;;;;;;11.85;8.83;;;;;;;6.68;57.84;101337.06;1782719;102;25863;-80
2022/12/02 03:35:02;;;;;;;9.75;8.45;;;;;;;6.68;57.82;101330.58;1897838;102;25833;-80
2022/12/02 03:38:46;;;;;;;10.80;7.97;;;;;;;6.68;57.76;101331.47;1899778;102;25900;-81
2022/12/02 03:42:15;;;;;;;9.85;7.80;;;;;;;6.68;57.75;101343.13;1909545;102;25861;-81
2022/12/02 03:45:43;;;;;;;8.80;7.90;;;;;;;6.68;57.71;101336.65;1927698;101;25877;-79
2022/12/02 03:49:14;;;;;;;7.87;6.92;;;;;;;6.68;57.69;101326.69;1928306;101;25883;-80
2022/12/02 03:52:44;;;;;;;9.30;8.00;;;;;;;6.67;57.66;101338.77;1899984;100;25770;-80
2022/12/02 03:56:13;;;;;;;8.70;7.87;;;;;;;6.66;57.63;101327.92;1910736;101;25867;-80
2022/12/02 04:03:12;;;;;;;8.95;8.03;;;;;;;6.65;57.53;101322.64;1854073;104;26709;-81
2022/12/02 04:06:39;;;;;;;9.03;8.10;;;;;;;6.63;57.46;101324.75;1851580;102;25869;-80
2022/12/02 04:10:10;;;;;;;9.45;8.55;;;;;;;6.63;57.45;101327.75;1823185;107;25729;-80
2022/12/02 04:13:48;;;;;;;9.28;8.23;;;;;;;6.63;57.40;101319.98;1773974;110;25905;-80
2022/12/02 04:20:49;;;;;;;9.63;8.00;;;;;;;6.61;57.30;101322.88;1780275;108;26306;-81
2022/12/02 04:24:21;;;;;;;12.80;9.15;;;;;;;6.59;57.27;101312.45;1713892;110;25521;-80
2022/12/02 04:31:46;;;;;;;11.10;9.43;;;;;;;6.58;57.19;101308.08;1667880;116;26194;-80
2022/12/02 04:35:34;;;;;;;10.45;8.83;;;;;;;6.58;57.17;101303.27;1657529;116;25966;-80
2022/12/02 04:39:13;;;;;;;12.23;9.13;;;;;;;6.58;57.15;101300.68;1657123;116;26000;-79
2022/12/02 04:42:55;;;;;;;12.30;8.88;;;;;;;6.57;57.14;101301.50;1652542;118;25731;-80
2022/12/02 04:47:35;;;;;;;12.95;8.13;;;;;;;6.57;57.11;101310.57;1653096;118;25937;-80
2022/12/02 04:51:03;;;;;;;13.93;9.48;;;;;;;6.56;57.11;101309.69;1656773;117;25906;-81
2022/12/02 04:54:26;;;;;;;10.45;9.40;;;;;;;6.55;57.06;101310.50;1673256;115;25932;-80
2022/12/02 04:58:11;;;;;;;10.45;9.40;;;;;;;6.55;57.06;101314.80;1672297;114;26185;-80
2022/12/02 05:01:38;;;;;;;;;;;;;;;6.53;56.92;101316.40;1744951;111;25891;-81
2022/12/02 05:05:18;;;;;;;14.00;8.68;;;;;;;6.51;56.91;101312.41;1744945;110;25984;-80
2022/12/02 05:08:46;;;;;;;14.00;9.05;;;;;;;6.51;56.90;101314.11;1798908;105;25420;-81
2022/12/02 05:12:10;;;;;;;14.87;10.38;;;;;;;6.51;56.90;101323.18;1876906;104;25765;-81
2022/12/02 05:15:38;;;;;;;9.85;8.83;;;;;;;6.50;56.87;101316.23;1895175;102;26018;-80
2022/12/02 05:19:06;;;;;;;10.32;9.33;;;;;;;6.50;56.83;101320.11;1894736;100;26546;-80
2022/12/02 05:23:19;;;;;;;;;;;;;;;;;;;;;
2022/12/02 05:30:29;;;;;;;11.20;8.95;;;;;;;6.50;56.77;101322.70;1879473;103;25828;-82
2022/12/02 05:34:00;;;;;;;12.73;10.05;;;;;;;6.50;56.73;101319.70;1880128;103;25820;-80
2022/12/02 05:37:21;;;;;;;11.15;10.10;;;;;;;6.50;56.69;101320.11;1908554;100;25853;-80
2022/12/02 05:40:59;;;;;;;17.35;9.88;;;;;;;6.50;56.67;101324.00;1919970;101;25829;-80
2022/12/02 05:51:26;;;;;;;9.90;8.75;;;;;;;6.47;56.57;101336.38;1889903;103;25847;-80
2022/12/02 05:58:49;;;;;;;11.33;8.48;;;;;;;6.45;56.48;101340.59;1867177;103;26016;-81
2022/12/02 06:02:38;;;;;;;9.63;8.58;;;;;;;6.44;56.46;101345.67;1884685;103;26004;-81
2022/12/02 06:06:00;;;;;;;;;;;;;;;6.42;56.43;101353.78;1780140;110;25948;-81
2022/12/02 06:09:35;;;;;;;16.05;8.98;;;;;;;6.41;56.37;101352.86;1777387;110;25768;-80
2022/12/02 06:13:07;;;;;;;9.93;8.13;;;;;;;6.40;56.35;101361.45;1778748;110;25920;-81
2022/12/02 06:16:37;;;;;;;11.03;8.33;;;;;;;6.38;56.35;101363.97;1738539;111;26273;-82
2022/12/02 06:20:15;;;;;;;10.20;8.60;;;;;;;6.36;56.30;101359.50;1739052;113;25957;-80
2022/12/02 06:24:00;;;;;;;12.70;8.55;;;;;;;6.35;56.25;101362.50;1772293;111;25880;-80
2022/12/02 06:37:10;;;;;;;9.83;8.23;;;;;;;6.31;56.10;101359.63;1636965;120;26049;-79
2022/12/02 06:40:59;;;;;;;8.73;7.67;;;;;;;6.32;56.08;101365.32;1579517;123;25926;-80
2022/12/02 06:48:46;;;;;;;10.63;8.85;;;;;;;6.31;56.06;101377.76;1598793;120;25964;-79
2022/12/02 06:56:15;;;;;;;10.75;8.40;;;;;;;6.30;55.93;101378.16;1614689;120;26273;-82
2022/12/02 06:59:45;;;;;;;11.28;8.08;;;;;;;6.28;55.93;101378.50;1615855;121;25560;-80
2022/12/02 07:03:29;;;;;;;13.40;8.03;;;;;;;6.28;55.87;101384.09;1626369;119;25984;-80
2022/12/02 07:07:30;;;;;;;8.30;7.30;;;;;;;6.27;55.82;101380.58;1639672;119;26587;-80
2022/12/02 07:10:58;;;;;;;10.10;7.87;;;;;;;6.27;55.78;101381.88;1713838;111;25909;-81
2022/12/02 07:18:41;;;;;;;8.75;7.83;;;;;;;6.26;55.73;101384.39;1690320;116;25969;-81
2022/12/02 07:22:40;;;;;;;10.30;8.38;;;;;;;6.24;55.69;101382.99;1707166;112;25581;-83
2022/12/02 07:26:12;;;;;;;;;;;;;;;;;;;;;
2022/12/02 07:30:02;;;;;;;9.70;8.70;;;;;;;6.25;55.63;101390.38;1665388;115;27361;-82
2022/12/02 07:51:09;;;;;;;;;;;;;;;;;;;;;
2022/12/02 08:00:45;;;;;;;18.60;11.90;;;;;;;6.18;55.45;101396.91;;;;
2022/12/02 08:04:17;;;;;;;18.65;12.20;;;;;;;6.10;54.13;101391.27;1639473;118;25908;-81
2022/12/02 08:07:53;;;;;;;23.57;12.85;;;;;;;5.47;53.00;101387.04;1650189;117;25788;-83
2022/12/02 08:11:33;;;;;;;19.37;13.48;;;;;;;5.03;52.49;101378.39;1646794;118;26064;-84
2022/12/02 08:15:07;;;;;;;19.90;13.18;;;;;;;4.60;52.42;101387.72;1644852;118;25901;-83
2022/12/02 08:18:39;;;;;;;16.12;12.05;;;;;;;4.27;52.52;101386.05;1655481;116;26036;-84
2022/12/02 08:22:15;;;;;;;22.40;12.90;;;;;;;4.10;52.51;101386.63;1665164;114;26207;-83
2022/12/02 08:25:49;;;;;;;21.45;13.30;;;;;;;3.93;52.35;101373.52;1678968;112;25863;-84
2022/12/02 08:32:51;;;;;;;24.63;13.40;;;;;;;3.63;52.58;101375.34;1756772;112;26001;-83
2022/12/02 08:36:27;;;;;;;15.08;11.80;;;;;;;3.59;52.59;101369.09;1745568;110;25500;-83
2022/12/02 08:39:54;;;;;;;16.15;12.13;;;;;;;3.50;52.51;101364.59;1746954;110;26100;-80
2022/12/02 08:47:07;;;;;;;22.33;13.00;;;;;;;3.60;53.81;101369.98;1720676;112;25988;-86
2022/12/02 08:50:57;;;;;;;18.40;13.00;;;;;;;3.60;53.94;101373.45;1718423;113;25917;-86
2022/12/02 08:54:30;;;;;;;18.95;13.08;;;;;;;3.49;53.92;101367.57;1727353;112;25906;-85
2022/12/02 09:02:56;;;;;;;19.67;12.05;;;;;;;3.45;53.94;101369.84;1707755;114;26370;-86
2022/12/02 09:06:40;;;;;;;19.75;12.18;;;;;;;3.45;54.02;101375.89;1726872;113;26035;-85
2022/12/02 09:26:05;;;;;;;23.90;11.75;;;;;;;3.48;53.97;101372.23;1719676;113;25679;-89
2022/12/02 09:29:59;;;;;;;;;;;;;;;;;;;;;
2022/12/02 09:38:58;;;;;;;23.07;11.80;;;;;;;4.08;54.05;101373.61;1767332;104;25951;-84
2022/12/02 09:52:06;;;;;;;20.20;11.97;;;;;;;4.89;53.79;101372.37;1775335;108;25901;-91
2022/12/02 09:55:42;;;;;;;22.37;13.50;;;;;;;4.89;53.79;101372.37;1775482;110;25862;-87
2022/12/02 10:12:53;;;;;;;;;;;;;;;;;;;;;
2022/12/02 10:16:35;;;;;;;;;;;;;;;;;;;;;
2022/12/02 10:20:12;;;;;;;15.72;12.28;;;;;;;5.32;53.32;101365.04;1608441;121;26214;-88
2022/12/02 10:24:12;;;;;;;;;;;;;;;;;;;;;
2022/12/02 10:27:56;;;;;;;;;;;;;;;;;;;;;
2022/12/02 10:31:26;;;;;;;19.25;14.25;;;;;;;5.30;52.90;101364.04;1558170;119;26545;-81
2022/12/02 10:35:13;;;;;;;21.55;13.88;;;;;;;5.07;52.69;101357.09;1558055;125;25944;-81
2022/12/02 10:38:48;;;;;;;22.87;16.17;;;;;;;4.87;52.58;101357.56;1618987;120;26048;-92
2022/12/02 10:42:20;;;;;;;23.25;15.45;;;;;;;4.69;52.54;101365.95;1636600;118;26677;-83
2022/12/02 10:46:16;;;;;;;23.95;15.90;;;;;;;4.56;52.50;101362.50;1669231;115;25930;-81
2022/12/02 10:50:07;;;;;;;24.95;15.08;;;;;;;4.47;52.52;101361.51;1712685;114;25809;-81
2022/12/02 10:53:36;;;;;;;28.05;16.42;;;;;;;4.38;52.47;101360.51;1778272;109;26166;-80
2022/12/02 10:57:01;;;;;;;23.32;16.17;;;;;;;4.30;52.40;101354.38;1781276;109;26221;-80
2022/12/02 11:00:31;;;;;;;20.95;15.23;;;;;;;4.22;52.44;101350.91;1803315;108;25869;-82
2022/12/02 11:04:08;;;;;;;26.20;14.87;;;;;;;4.19;52.46;101358.86;1810084;107;25829;-80
2022/12/02 11:07:35;;;;;;;21.65;14.73;;;;;;;4.17;52.43;101361.72;1810433;107;25794;-80
2022/12/02 11:11:37;;;;;;;28.27;16.12;;;;;;;4.14;52.39;101360.23;1799842;107;25876;-80
2022/12/02 11:15:26;;;;;;;33.85;17.12;;;;;;;4.12;52.45;101356.67;1811422;107;26063;-80
2022/12/02 11:18:58;;;;;;;25.82;16.32;;;;;;;4.10;52.34;101351.39;1830717;106;25879;-78
2022/12/02 11:23:03;;;;;;;34.85;14.10;;;;;;;4.05;52.29;101354.09;1845564;105;25772;-80
2022/12/02 11:31:17;;;;;;;30.83;15.30;;;;;;;4.30;54.43;101353.97;1855562;105;25529;-85
2022/12/02 11:35:23;;;;;;;27.75;17.12;;;;;;;4.13;53.75;101345.14;1831251;106;25828;-80
2022/12/02 11:39:17;;;;;;;28.90;15.90;;;;;;;4.01;53.47;101351.67;1801470;108;25773;-85
2022/12/02 11:43:43;;;;;;;27.35;16.67;;;;;;;3.93;53.23;101350.30;1795655;108;25964;-84
2022/12/02 11:55:06;;;;;;;31.93;18.62;;;;;;;3.81;53.64;101337.87;1819835;105;26032;-83
2022/12/02 11:58:43;;;;;;;34.75;18.70;;;;;;;3.78;53.44;101340.27;1745370;110;25901;-83
2022/12/02 12:02:39;;;;;;;;;;;;;;;;;;;;;
2022/12/02 12:06:39;;;;;;;;;;;;;;;;;;;;;
2022/12/02 12:16:54;;;;;;;;;;;;;;;;;;;;;
2022/12/02 12:21:40;;;;;;;31.17;18.80;;;;;;;6.19;63.63;101314.53;1678897;114;25919;-80
2022/12/02 12:25:53;;;;;;;;;;;;;;;;;;;;;
2022/12/02 12:29:51;;;;;;;25.57;17.85;;;;;;;6.36;56.48;101312.47;1681922;117;26064;-85
2022/12/02 12:33:19;;;;;;;30.95;19.00;;;;;;;5.73;55.76;101328.69;1729782;112;25910;-76
2022/12/02 12:37:03;;;;;;;35.35;18.73;;;;;;;5.35;56.04;101323.86;1775466;109;25956;-78
2022/12/02 12:40:29;;;;;;;29.75;18.90;;;;;;;5.15;55.96;101318.37;1776386;108;26572;-78
2022/12/02 12:44:03;;;;;;;26.25;17.50;;;;;;;4.99;55.77;101316.95;1777912;109;25767;-79
2022/12/02 12:47:24;;;;;;;28.50;17.90;;;;;;;4.85;55.58;101320.39;1757378;110;26100;-77
2022/12/02 12:51:17;;;;;;;30.35;17.00;;;;;;;4.75;55.38;101325.38;1762011;111;26062;-79
2022/12/02 13:02:17;;;;;;;19.30;16.20;;;;;;;4.41;54.75;101324.56;1732177;112;26023;-79
2022/12/02 13:05:59;;;;;;;27.20;17.82;;;;;;;4.34;54.56;101323.68;1706136;110;26096;-79
2022/12/02 13:09:53;;;;;;;30.05;16.60;;;;;;;4.24;54.41;101326.06;1775156;109;26049;-81
2022/12/02 13:13:13;;;;;;;24.72;17.17;;;;;;;4.21;54.45;101327.16;1778029;111;25962;-81
2022/12/02 13:16:53;;;;;;;;;;;;;;;;;;;;;
2022/12/02 13:20:22;;;;;;;24.40;16.17;;;;;;;4.66;54.36;101322.25;1772694;111;26090;-80
2022/12/02 13:23:54;;;;;;;24.30;16.32;;;;;;;4.83;54.32;101325.88;1777928;109;25990;-78
2022/12/02 13:27:25;;;;;;;26.95;16.05;;;;;;;4.95;54.17;101321.44;1758752;110;25986;-78
2022/12/02 13:31:01;;;;;;;21.52;15.58;;;;;;;5.06;54.08;101318.22;1760323;111;26083;-77
2022/12/02 13:34:36;;;;;;;22.27;15.03;;;;;;;5.14;53.96;101324.36;1771251;110;26580;-79
2022/12/02 13:38:05;;;;;;;22.60;15.50;;;;;;;5.21;53.86;101326.91;1773770;110;25885;-79
2022/12/02 13:41:24;;;;;;;20.97;15.18;;;;;;;5.28;53.83;101327.77;1793574;108;25863;-78
2022/12/02 13:44:54;;;;;;;25.90;15.83;;;;;;;5.30;53.58;101335.23;1799397;108;28230;-80
2022/12/02 13:48:45;;;;;;;27.98;15.32;;;;;;;5.15;53.24;101330.00;1807104;107;25460;-79
2022/12/02 13:52:08;;;;;;;23.00;15.10;;;;;;;4.93;53.06;101339.86;1794467;107;26008;-80
2022/12/02 13:55:34;;;;;;;23.95;16.87;;;;;;;4.71;52.93;101334.63;1790589;108;25811;-80
2022/12/02 13:59:04;;;;;;;23.73;15.13;;;;;;;4.56;52.92;101341.44;1813619;106;25879;-78
2022/12/02 14:02:29;;;;;;;;;;;;;;;4.45;52.79;101345.90;1831897;107;26069;-83
2022/12/02 14:06:18;;;;;;;32.78;18.02;;;;;;;4.35;52.80;101337.48;1815824;106;25910;-80
2022/12/02 14:09:38;;;;;;;27.60;17.85;;;;;;;4.26;52.75;101345.55;1804310;107;26016;-76
2022/12/02 14:13:14;;;;;;;35.45;18.30;;;;;;;4.16;52.79;101342.77;1813995;107;26267;-76
2022/12/02 14:16:43;;;;;;;32.03;18.17;;;;;;;4.11;52.74;101339.38;1829930;103;25888;-76
2022/12/02 14:20:08;;;;;;;31.42;18.10;;;;;;;4.03;52.73;101332.44;1899680;102;25798;-78
2022/12/02 14:23:29;;;;;;;28.52;18.48;;;;;;;4.00;52.72;101338.28;1905171;102;26429;-78
2022/12/02 14:26:50;;;;;;;35.43;17.55;;;;;;;3.94;52.72;101336.59;1909294;102;25963;-77
2022/12/02 14:30:20;;;;;;;29.10;17.87;;;;;;;3.90;52.70;101336.30;1924831;101;25828;-77
2022/12/02 14:33:48;;;;;;;32.95;18.20;;;;;;;3.88;52.67;101340.45;1875532;103;25859;-76
2022/12/02 14:37:37;;;;;;;36.90;18.52;;;;;;;3.84;52.69;101341.05;1918363;100;26000;-77
2022/12/02 14:41:12;;;;;;;27.67;17.32;;;;;;;3.78;52.63;101341.56;1868725;103;26018;-77
2022/12/02 14:44:49;;;;;;;;;;;;;;;;;;;;;
2022/12/02 14:48:00;;;;;;;25.97;17.23;;;;;;;3.89;52.89;101344.44;1887466;102;25887;-77
2022/12/02 14:51:24;;;;;;;28.60;18.13;;;;;;;4.10;52.85;101346.23;1906440;101;34854;-76
2022/12/02 14:54:51;;;;;;;30.12;17.95;;;;;;;4.27;52.77;101353.77;1919496;101;25849;-82
2022/12/02 14:58:23;;;;;;;28.23;17.55;;;;;;;4.40;52.70;101354.17;1884757;103;25791;-78
2022/12/02 15:01:57;;;;;;;27.13;17.57;;;;;;;4.51;52.63;101359.61;1899595;102;25904;-78
2022/12/02 15:05:28;;;;;;;28.85;17.92;;;;;;;4.59;52.55;101354.55;1848205;105;25910;-76
2022/12/02 15:08:52;;;;;;;24.47;16.17;;;;;;;4.67;52.50;101354.62;1838486;105;25799;-77
2022/12/02 15:12:17;;;;;;;33.80;17.85;;;;;;;4.73;52.46;101353.72;1854677;104;26523;-78
2022/12/02 15:15:39;;;;;;;27.70;17.95;;;;;;;4.79;52.41;101353.59;1864661;104;26013;-76
2022/12/02 15:19:08;;;;;;;30.60;16.67;;;;;;;4.84;52.36;101349.21;1871034;104;25934;-78
2022/12/02 15:22:37;;;;;;;30.30;17.25;;;;;;;4.88;52.32;101351.18;1877600;104;25978;-78
2022/12/02 15:26:06;;;;;;;33.73;17.63;;;;;;;4.92;52.30;101347.09;1828053;107;25900;-77
2022/12/02 15:29:33;;;;;;;27.20;16.45;;;;;;;4.95;52.26;101351.16;1832597;105;26188;-78
2022/12/02 15:33:23;;;;;;;28.87;16.40;;;;;;;4.97;52.24;101351.75;1829029;103;25947;-79
2022/12/02 15:36:47;;;;;;;24.40;16.42;;;;;;;5.00;52.22;101356.23;1834369;107;26033;-77
2022/12/02 15:40:16;;;;;;;28.98;17.35;;;;;;;5.04;52.21;101361.19;1889937;103;25992;-79
2022/12/02 15:43:44;;;;;;;33.75;17.55;;;;;;;5.06;52.20;101363.44;1888282;100;25991;-79
2022/12/02 15:47:17;;;;;;;24.98;15.63;;;;;;;5.07;52.16;101366.14;1901786;103;26492;-78
2022/12/02 15:50:43;;;;;;;28.02;16.57;;;;;;;5.08;52.14;101370.91;1902775;100;25824;-78
2022/12/02 15:54:12;;;;;;;29.70;17.92;;;;;;;5.08;52.13;101370.91;1885966;103;25868;-78
2022/12/02 15:57:33;;;;;;;24.98;15.75;;;;;;;5.07;52.13;101373.89;1885859;103;25936;-78
2022/12/02 16:01:08;;;;;;;29.30;16.00;;;;;;;5.08;52.13;101369.61;1870193;103;34973;-78
2022/12/02 16:04:49;;;;;;;21.30;16.10;;;;;;;5.09;52.08;101368.80;1832497;106;25909;-77
2022/12/02 16:08:23;;;;;;;27.37;14.45;;;;;;;5.08;52.11;101374.78;1832218;107;25997;-77
2022/12/02 16:11:57;;;;;;;27.98;16.10;;;;;;;5.15;53.78;101368.78;1839794;106;26267;-78
2022/12/02 16:15:20;;;;;;;28.23;16.10;;;;;;;5.24;53.39;101363.30;1862949;103;25759;-78
2022/12/02 16:18:55;;;;;;;25.90;15.88;;;;;;;5.26;53.62;101361.67;1955043;101;25732;-77
2022/12/02 16:22:18;;;;;;;27.70;16.27;;;;;;;5.25;53.73;101365.47;2012180;94;25790;-77
2022/12/02 16:25:39;;;;;;;25.17;15.55;;;;;;;5.22;53.74;101367.46;2067400;94;26345;-78
2022/12/02 16:29:00;;;;;;;28.97;16.37;;;;;;;5.22;53.74;101366.17;2069976;95;27375;-77
2022/12/02 16:32:25;;;;;;;30.12;16.12;;;;;;;5.21;53.76;101364.39;2069848;94;26369;-77
2022/12/02 16:35:55;;;;;;;27.95;16.55;;;;;;;5.22;53.73;101368.75;2065389;95;25742;-79
2022/12/02 16:39:27;;;;;;;27.70;15.88;;;;;;;5.21;53.69;101363.99;2058773;94;25813;-77
2022/12/02 16:43:08;;;;;;;25.32;15.18;;;;;;;5.23;53.67;101373.52;2071316;94;25833;-77
2022/12/02 16:46:48;;;;;;;24.40;14.18;;;;;;;5.23;53.63;101363.18;2070908;94;25780;-78
2022/12/02 16:50:36;;;;;;;22.48;14.93;;;;;;;5.21;53.54;101365.28;2090949;91;26381;-78
2022/12/02 16:54:03;;;;;;;24.12;15.13;;;;;;;5.21;53.53;101358.81;2119205;93;26488;-77
2022/12/02 16:57:26;;;;;;;28.02;14.83;;;;;;;5.20;53.50;101358.74;2122254;91;25975;-77
2022/12/02 17:00:47;;;;;;;23.57;14.20;;;;;;;5.20;53.47;101362.22;2122569;91;26247;-78
2022/12/02 17:04:14;;;;;;;21.60;14.70;;;;;;;5.20;53.45;101360.03;2122872;91;25821;-78
2022/12/02 17:07:49;;;;;;;27.87;16.50;;;;;;;5.20;53.44;101358.74;2122373;91;25737;-79
2022/12/02 17:11:12;;;;;;;27.75;14.90;;;;;;;5.19;53.38;101364.28;2117188;91;25816;-77
2022/12/02 17:14:39;;;;;;;30.75;15.40;;;;;;;5.19;53.39;101369.45;2098787;92;25758;-77
2022/12/02 17:18:01;;;;;;;20.88;14.63;;;;;;;5.18;53.37;101368.08;2063785;93;25785;-77
2022/12/02 17:21:32;;;;;;;22.93;14.58;;;;;;;5.20;53.34;101371.27;2118211;92;26008;-78
2022/12/02 17:25:06;;;;;;;23.32;14.53;;;;;;;5.20;53.32;101365.20;2113927;92;25825;-77
2022/12/02 17:28:51;;;;;;;21.73;13.80;;;;;;;5.20;53.30;101369.08;2094624;92;25863;-79
2022/12/02 17:32:24;;;;;;;24.37;14.78;;;;;;;5.20;53.28;101380.72;2093261;93;25831;-76
2022/12/02 17:36:12;;;;;;;;;;;;;;;;;;;;;
2022/12/02 17:39:42;;;;;;;;;;;;;;;;;;;;;
2022/12/02 17:42:55;;;;;;;25.30;15.30;;;;;;;5.18;53.22;101384.89;1976622;98;25826;-79
2022/12/02 17:46:30;;;;;;;25.63;14.47;;;;;;;5.18;53.20;101383.59;1977164;98;27108;-78
2022/12/02 17:49:50;;;;;;;24.50;14.45;;;;;;;5.18;53.19;101386.18;1977170;98;25829;-80
2022/12/02 17:53:19;;;;;;;30.10;16.67;;;;;;;5.18;53.17;101383.59;1977059;98;28708;-77
2022/12/02 17:56:43;;;;;;;;;;;;;;;5.17;53.69;101372.77;1972371;100;25805;-76
2022/12/02 18:00:14;;;;;;;48.70;21.25;;;;;;;4.94;54.28;101376.11;1936686;100;25772;-81
2022/12/02 18:03:38;;;;;;;49.93;20.62;;;;;;;4.89;54.27;101378.83;1994787;97;25885;-79
2022/12/02 18:07:03;;;;;;;44.13;20.00;;;;;;;5.02;54.37;101376.58;2014798;96;26460;-79
2022/12/02 18:10:31;;;;;;;48.68;20.32;;;;;;;5.16;55.09;101368.38;1891289;103;25399;-77
2022/12/02 18:13:55;;;;;;;42.03;20.08;;;;;;;5.28;55.27;101373.02;1884220;102;25999;-77
2022/12/02 18:17:19;;;;;;;42.25;17.87;;;;;;;5.39;54.83;101377.53;1886532;103;25878;-76
2022/12/02 18:20:44;;;;;;;41.73;19.85;;;;;;;5.45;54.76;101381.38;1865041;102;26063;-76
2022/12/02 18:24:11;;;;;;;39.48;18.02;;;;;;;5.52;54.60;101383.05;1835302;107;25874;-79
2022/12/02 18:27:32;;;;;;;40.83;18.80;;;;;;;5.57;56.01;101377.73;1840357;107;25873;-80
2022/12/02 18:31:04;;;;;;;38.08;17.07;;;;;;;5.60;56.78;101375.33;1841809;103;25927;-80
2022/12/02 18:34:19;;;;;;;35.80;19.23;;;;;;;5.60;56.79;101374.96;1891850;102;26174;-81
2022/12/02 18:37:56;;;;;;;33.10;17.20;;;;;;;5.62;56.87;101382.80;1881921;103;35002;-80
2022/12/02 18:44:57;;;;;;;37.10;16.80;;;;;;;5.60;57.12;101377.55;1940439;102;25995;-80
2022/12/02 18:48:27;;;;;;;38.25;19.25;;;;;;;5.58;57.20;101373.96;1944051;100;25762;-82
2022/12/02 18:51:55;;;;;;;35.90;16.77;;;;;;;5.57;57.23;101373.48;1959259;99;25828;-82
2022/12/02 18:55:33;;;;;;;29.72;16.32;;;;;;;5.56;57.26;101369.48;1959034;99;25892;-84
2022/12/02 18:58:52;;;;;;;28.67;15.68;;;;;;;5.54;57.30;101368.13;1951473;98;26037;-84
2022/12/02 19:02:15;;;;;;;30.92;15.95;;;;;;;5.54;57.30;101367.23;1989490;98;25712;-78
2022/12/02 19:05:44;;;;;;;33.60;15.28;;;;;;;5.52;57.32;101358.07;1995340;97;25756;-80
2022/12/02 19:09:14;;;;;;;31.90;16.27;;;;;;;5.49;57.32;101360.47;1999749;97;25341;-80
2022/12/02 19:12:45;;;;;;;;;;;;;;;5.48;57.34;101366.45;1996480;98;25343;-82
2022/12/02 19:16:10;;;;;;;32.40;16.70;;;;;;;5.45;57.34;101360.69;1988768;98;25791;-83
2022/12/02 19:19:35;;;;;;;29.25;16.27;;;;;;;5.43;57.32;101363.98;1988558;98;25752;-80
2022/12/02 19:23:09;;;;;;;25.15;14.63;;;;;;;5.41;57.35;101361.31;1987801;98;25837;-82
2022/12/02 19:26:42;;;;;;;29.30;16.55;;;;;;;5.40;57.34;101363.80;1988977;98;25955;-83
2022/12/02 19:30:16;;;;;;;27.48;16.10;;;;;;;5.39;57.34;101361.61;1985905;93;26561;-82
2022/12/02 19:33:47;;;;;;;25.15;15.00;;;;;;;5.38;57.35;101359.84;2006887;96;26629;-82
2022/12/02 19:37:14;;;;;;;23.55;14.78;;;;;;;5.36;57.36;101362.72;2059074;93;25886;-82
2022/12/02 19:40:48;;;;;;;27.17;15.72;;;;;;;5.36;57.38;101359.25;2102398;93;25836;-83
2022/12/02 19:44:08;;;;;;;25.05;15.95;;;;;;;5.35;57.36;101360.05;2052692;95;25803;-82
2022/12/02 19:51:10;;;;;;;24.75;14.78;;;;;;;5.34;57.38;101361.75;2028739;97;25809;-82
2022/12/02 19:57:56;;;;;;;22.37;15.10;;;;;;;5.34;57.41;101358.28;1987727;97;25793;-79
2022/12/02 20:01:25;;;;;;;28.92;15.05;;;;;;;5.33;57.44;101362.56;1949337;99;44883;-79
2022/12/02 20:05:04;;;;;;;24.65;15.93;;;;;;;5.34;57.44;101361.75;1986436;99;25888;-79
2022/12/02 20:08:41;;;;;;;22.98;14.35;;;;;;;5.34;57.44;101359.57;1891702;103;25884;-82
2022/12/02 20:15:41;;;;;;;23.42;14.60;;;;;;;5.32;57.46;101360.75;1811067;107;25900;-78
2022/12/02 20:19:41;;;;;;;;;;;;;;;;;;;;;
2022/12/02 20:23:04;;;;;;;23.65;14.58;;;;;;;5.31;57.49;101364.55;1811671;107;25916;-81
2022/12/02 20:26:44;;;;;;;21.70;14.38;;;;;;;5.31;57.53;101364.16;1810471;106;26586;-82
2022/12/02 20:30:27;;;;;;;20.70;14.28;;;;;;;5.32;57.56;101363.75;1855468;105;25846;-83
2022/12/02 20:34:05;;;;;;;22.65;14.70;;;;;;;5.31;57.57;101369.33;1830411;105;25902;-83
2022/12/02 20:37:55;;;;;;;22.35;14.73;;;;;;;5.33;57.59;101369.41;1811738;106;26068;-81
2022/12/02 20:41:29;;;;;;;22.17;13.93;;;;;;;5.33;57.63;101365.16;1771549;106;26526;-81